createdAt,value
2022-08-02T00:02:24.993Z,101829.38
2022-08-02T00:07:26.709Z,101829.31
2022-08-02T00:12:28.475Z,101822.53
2022-08-02T00:17:30.051Z,101817.47
2022-08-02T00:22:31.949Z,101818.44
2022-08-02T00:27:33.542Z,101815.81
2022-08-02T00:32:35.146Z,101825.50
2022-08-02T00:37:41.260Z,101826.31
2022-08-02T00:42:44.126Z,101835.22
2022-08-02T00:47:45.668Z,101841.44
2022-08-02T00:52:47.207Z,101846.94
2022-08-02T00:57:49.094Z,101851.47
2022-08-02T01:02:51.019Z,101844.63
2022-08-02T01:07:52.545Z,101836.75
2022-08-02T01:12:54.192Z,101849.78
2022-08-02T01:17:56.724Z,101840.28
2022-08-02T01:23:35.830Z,101847.34
2022-08-02T01:28:56.685Z,101837.94
2022-08-02T01:34:16.798Z,101856.16
2022-08-02T01:39:26.931Z,101848.38
2022-08-02T01:44:37.893Z,101854.69
2022-08-02T01:49:42.138Z,101861.72
2022-08-02T01:54:45.563Z,101857.47
2022-08-02T01:59:49.609Z,101851.47
2022-08-02T02:04:53.098Z,101850.63
2022-08-02T02:09:56.573Z,101842.81
2022-08-02T02:15:00.005Z,101846.31
2022-08-02T02:20:02.949Z,101838.50
2022-08-02T02:25:05.015Z,101816.78
2022-08-02T02:30:09.171Z,101824.63
2022-08-02T02:35:16.361Z,101826.44
2022-08-02T02:40:20.408Z,101822.13
2022-08-02T02:45:23.624Z,101811.75
2022-08-02T02:50:25.685Z,101797.84
2022-08-02T02:55:28.503Z,101802.16
2022-08-02T03:00:48.687Z,101790.91
2022-08-02T03:05:50.266Z,101794.38
2022-08-02T03:10:52.251Z,101802.13
2022-08-02T03:15:53.926Z,101795.97
2022-08-02T03:21:00.364Z,101786.34
2022-08-02T03:26:02.763Z,101789.00
2022-08-02T03:31:04.778Z,101804.63
2022-08-02T03:36:12.322Z,101802.00
2022-08-02T03:41:17.687Z,101799.31
2022-08-02T03:46:24.968Z,101807.06
2022-08-02T03:51:26.878Z,101802.69
2022-08-02T03:56:29.650Z,101800.09
2022-08-02T04:01:31.384Z,101793.94
2022-08-02T04:06:33.595Z,101795.72
2022-08-02T04:11:35.116Z,101787.81
2022-08-02T04:17:08.813Z,101792.81
2022-08-02T04:22:17.160Z,101803.34
2022-08-02T04:27:50.072Z,101791.91
2022-08-02T04:32:43.274Z,101804.91
2022-08-02T04:38:09.859Z,101809.28
2022-08-02T04:43:07.357Z,101798.78
2022-08-02T04:48:08.902Z,101808.25
2022-08-02T04:53:10.529Z,101811.50
2022-08-02T04:58:37.324Z,101818.31
2022-08-02T05:03:34.265Z,101816.41
2022-08-02T05:08:35.800Z,101812.94
2022-08-02T05:13:57.451Z,101827.31
2022-08-02T05:19:02.317Z,101827.50
2022-08-02T05:24:04.881Z,101814.63
2022-08-02T05:29:06.468Z,101810.28
2022-08-02T05:34:11.821Z,101808.09
2022-08-02T05:39:19.137Z,101817.00
2022-08-02T05:44:21.259Z,101809.50
2022-08-02T05:49:22.819Z,101812.16
2022-08-02T05:55:09.977Z,101802.13
2022-08-02T06:00:21.578Z,101801.28
2022-08-02T06:05:26.362Z,101810.75
2022-08-02T06:10:30.091Z,101804.97
2022-08-02T06:15:31.854Z,101797.13
2022-08-02T06:20:35.579Z,101811.50
2022-08-02T06:25:48.217Z,101816.47
2022-08-02T06:30:54.555Z,101823.94
2022-08-02T06:36:15.792Z,101831.56
2022-08-02T06:41:18.644Z,101820.28
2022-08-02T06:46:38.075Z,101804.59
2022-08-02T06:51:42.658Z,101791.72
2022-08-02T06:56:44.236Z,101781.06
2022-08-02T07:01:45.930Z,101785.66
2022-08-02T07:06:47.600Z,101786.13
2022-08-02T07:11:49.103Z,101785.19
2022-08-02T07:16:50.734Z,101775.41
2022-08-02T07:21:57.558Z,101771.06
2022-08-02T07:27:11.251Z,101767.94
2022-08-02T07:32:16.078Z,101773.19
2022-08-02T07:37:35.241Z,101766.56
2022-08-02T07:42:39.832Z,101772.13
2022-08-02T07:47:43.995Z,101753.25
2022-08-02T07:52:46.874Z,101760.50
2022-08-02T07:57:48.433Z,101730.91
2022-08-02T08:02:49.948Z,101730.41
2022-08-02T08:07:52.143Z,101732.66
2022-08-02T08:12:55.215Z,101736.84
2022-08-02T08:17:59.466Z,101737.38
2022-08-02T08:23:01.021Z,101735.06
2022-08-02T08:28:02.586Z,101730.84
2022-08-02T08:33:04.504Z,101736.06
2022-08-02T08:38:07.873Z,101733.22
2022-08-02T08:43:12.821Z,101737.88
2022-08-02T08:48:28.887Z,101727.63
2022-08-02T08:53:40.450Z,101741.88
2022-08-02T08:58:44.907Z,101725.44
2022-08-02T09:03:46.557Z,101726.50
2022-08-02T09:08:48.440Z,101711.28
2022-08-02T09:13:55.214Z,101696.44
2022-08-02T09:18:58.834Z,101687.72
2022-08-02T09:24:15.987Z,101698.34
2022-08-02T09:29:21.630Z,101708.78
2022-08-02T09:34:23.362Z,101690.66
2022-08-02T09:39:26.369Z,101695.91
2022-08-02T09:44:31.044Z,101690.81
2022-08-02T09:49:33.201Z,101689.91
2022-08-02T09:54:36.232Z,101680.66
2022-08-02T09:59:37.886Z,101696.69
2022-08-02T10:04:53.022Z,101691.91
2022-08-02T10:09:56.020Z,101681.66
2022-08-02T10:14:59.278Z,101692.19
2022-08-02T10:20:04.663Z,101667.19
2022-08-02T10:25:08.299Z,101668.13
2022-08-02T10:30:10.508Z,101659.41
2022-08-02T10:35:19.862Z,101657.38
2022-08-02T10:40:50.018Z,101634.97
2022-08-02T10:45:51.693Z,101633.94
2022-08-02T10:50:53.719Z,101633.94
2022-08-02T10:56:00.584Z,101633.16
2022-08-02T11:01:27.289Z,101626.47
2022-08-02T11:07:19.578Z,101622.38
2022-08-02T11:12:21.537Z,101626.47
2022-08-02T11:17:23.169Z,101617.84
2022-08-02T11:22:25.997Z,101598.91
2022-08-02T11:27:29.601Z,101592.72
2022-08-02T11:32:31.943Z,101610.84
2022-08-02T11:37:37.377Z,101581.03
2022-08-02T11:42:47.220Z,101584.88
2022-08-02T11:47:51.145Z,101571.00
2022-08-02T11:52:56.103Z,101577.69
2022-08-02T11:58:04.739Z,101576.06
2022-08-02T12:03:07.735Z,101563.78
2022-08-02T12:08:09.358Z,101563.13
2022-08-02T12:13:10.896Z,101544.53
2022-08-02T12:18:37.245Z,101544.34
2022-08-02T12:23:59.674Z,101538.03
2022-08-02T12:29:02.692Z,101537.84
2022-08-02T12:34:16.904Z,101547.41
2022-08-02T12:39:18.556Z,101542.88
2022-08-02T12:44:20.149Z,101542.94
2022-08-02T12:49:21.727Z,101543.84
2022-08-02T12:54:31.112Z,101554.22
2022-08-02T12:59:38.831Z,101558.38
2022-08-02T13:04:41.429Z,101560.31
2022-08-02T13:09:47.593Z,101547.06
2022-08-02T13:14:49.193Z,101541.69
2022-08-02T13:19:51.119Z,101552.28
2022-08-02T13:24:55.638Z,101546.84
2022-08-02T13:29:58.526Z,101522.41
2022-08-02T13:35:00.196Z,101528.94
2022-08-02T13:45:23.976Z,101518.41
2022-08-02T13:50:25.586Z,101500.69
2022-08-02T13:55:30.831Z,101494.63
2022-08-02T14:00:34.947Z,101490.91
2022-08-02T14:05:47.321Z,101480.59
2022-08-02T14:10:51.960Z,101475.84
2022-08-02T14:15:53.570Z,101468.88
2022-08-02T14:20:55.159Z,101459.81
2022-08-02T14:25:57.898Z,101459.56
2022-08-02T14:30:59.476Z,101466.22
2022-08-02T14:36:01.099Z,101454.94
2022-08-02T14:41:02.700Z,101468.31
2022-08-02T14:46:04.324Z,101465.09
2022-08-02T14:51:05.884Z,101468.72
2022-08-02T14:56:07.565Z,101463.25
2022-08-02T15:01:09.178Z,101468.59
2022-08-02T15:06:15.456Z,101463.13
2022-08-02T15:11:17.124Z,101456.19
2022-08-02T15:16:18.689Z,101462.75
2022-08-02T15:21:41.777Z,101464.22
2022-08-02T15:26:41.763Z,101473.91
2022-08-02T15:31:43.629Z,101471.97
2022-08-02T15:36:45.152Z,101478.44
2022-08-02T15:41:46.663Z,101474.00
2022-08-02T15:46:48.292Z,101478.47
2022-08-02T15:51:50.757Z,101476.47
2022-08-02T15:56:52.276Z,101468.88
2022-08-02T16:01:53.896Z,101456.94
2022-08-02T16:06:55.516Z,101455.88
2022-08-02T16:11:57.290Z,101452.81
2022-08-02T16:16:59.260Z,101439.91
2022-08-02T16:22:01.014Z,101442.88
2022-08-02T16:27:02.627Z,101441.06
2022-08-02T16:32:05.164Z,101439.75
2022-08-02T16:37:07.644Z,101436.03
2022-08-02T16:42:09.216Z,101428.06
2022-08-02T16:47:13.677Z,101421.75
2022-08-02T16:52:16.570Z,101411.44
2022-08-02T16:57:20.930Z,101423.69
2022-08-02T17:02:25.595Z,101421.44
2022-08-02T17:08:06.340Z,101435.69
2022-08-02T17:12:51.271Z,101419.47
2022-08-02T17:17:53.092Z,101416.53
2022-08-02T17:22:55.195Z,101418.03
2022-08-02T17:28:02.112Z,101403.63
2022-08-02T17:33:06.069Z,101419.19
2022-08-02T17:38:08.279Z,101418.75
2022-08-02T17:43:14.529Z,101422.38
2022-08-02T17:48:18.201Z,101434.41
2022-08-02T17:53:20.787Z,101444.44
2022-08-02T17:58:22.354Z,101427.72
2022-08-02T18:03:34.789Z,101437.19
2022-08-02T18:08:44.577Z,101431.28
2022-08-02T18:13:53.447Z,101436.72
2022-08-02T18:18:55.209Z,101449.75
2022-08-02T18:23:58.511Z,101465.06
2022-08-02T18:29:03.720Z,101465.44
2022-08-02T18:34:05.439Z,101468.88
2022-08-02T18:39:08.687Z,101458.84
2022-08-02T18:44:10.806Z,101441.16
2022-08-02T18:49:17.600Z,101434.34
2022-08-02T18:54:30.796Z,101440.72
2022-08-02T18:59:36.863Z,101411.59
2022-08-02T19:04:43.516Z,101425.84
2022-08-02T19:09:49.610Z,101419.72
2022-08-02T19:14:51.262Z,101420.56
2022-08-02T19:19:55.188Z,101441.81
2022-08-02T19:25:01.192Z,101433.78
2022-08-02T19:30:07.539Z,101441.84
2022-08-02T19:35:19.954Z,101439.56
2022-08-02T19:40:32.821Z,101435.91
2022-08-02T19:45:49.255Z,101444.66
2022-08-02T19:50:56.404Z,101436.75
2022-08-02T19:56:03.308Z,101442.53
2022-08-02T20:01:05.559Z,101442.81
2022-08-02T20:06:07.436Z,101444.91
2022-08-02T20:11:15.065Z,101444.06
2022-08-02T20:16:27.491Z,101442.81
2022-08-02T20:21:36.398Z,101442.59
2022-08-02T20:26:47.926Z,101443.28
2022-08-02T20:31:50.374Z,101445.25
2022-08-02T20:36:53.870Z,101430.38
2022-08-02T20:41:58.674Z,101425.94
2022-08-02T20:47:01.835Z,101432.25
2022-08-02T20:52:04.051Z,101436.66
2022-08-02T20:57:48.503Z,101433.13
2022-08-02T21:02:47.382Z,101425.81
2022-08-02T21:07:53.298Z,101425.16
2022-08-02T21:12:55.469Z,101422.72
2022-08-02T21:18:04.481Z,101409.78
2022-08-02T21:28:44.954Z,101406.53
2022-08-02T21:33:56.631Z,101406.38
2022-08-02T21:39:05.184Z,101396.06
2022-08-02T21:44:08.858Z,101407.28
2022-08-02T21:49:11.320Z,101402.69
2022-08-02T21:54:18.197Z,101402.59
2022-08-02T21:59:25.719Z,101394.44
2022-08-02T22:04:28.122Z,101397.50
2022-08-02T22:09:43.256Z,101389.13
2022-08-02T22:14:53.710Z,101394.94
2022-08-02T22:19:57.003Z,101382.00
2022-08-02T22:24:58.565Z,101394.50
2022-08-02T22:30:02.103Z,101392.25
2022-08-02T22:35:08.783Z,101394.25
2022-08-02T22:40:11.057Z,101395.53
2022-08-02T22:45:14.035Z,101396.69
2022-08-02T22:50:15.582Z,101393.44
2022-08-02T22:55:18.154Z,101393.16
2022-08-02T22:59:02.553Z,101419.72
2022-08-02T23:00:19.920Z,101396.28
2022-08-02T23:05:21.786Z,101395.06
2022-08-02T23:10:24.042Z,101392.66
2022-08-02T23:15:26.373Z,101397.56
2022-08-02T23:20:29.002Z,101397.50
2022-08-02T23:25:30.513Z,101393.81
2022-08-02T23:30:32.026Z,101385.88
2022-08-02T23:35:33.577Z,101380.94
2022-08-02T23:40:40.462Z,101379.19
2022-08-02T23:45:44.735Z,101391.63
2022-08-02T23:50:46.343Z,101384.50
2022-08-02T23:55:47.839Z,101386.03
